Denali Natl Park, Alaska
Current Conditions -  °F | °C
As of 5:56 AM on Sunday 23 Nov 2014 (Local Time) from PAIN Reporting Station
Few Clouds Few Clouds  
Wind Chill: -2°   Ceiling: Unl
Heat Index: -2°   Visibility: 10mi
Dew Point: -4°   Wind: 0mph
Humidity: 92%   Direction: NA
Pressure: 29.36"   Gusts: NA
Location:  63.59°N, 151.34°W
Report Text: PAIN 231456Z AUTO 00000KT 10SM FEW060 M19/M20 A2936 RMK AO1 52007
Loading
Personal Weather Stations






























Interactive Weather Map New forecast layout! Learn more

10-Day Weather Forecast

Advertisements
Track Severe Weather on mobile